Time;durP1;ratioP1;P1;durP2;ratioP2;P2;SDS_P1;SDS_P2;PMS_P1;PMS_P2;Temp;Humidity;BMP_temperature;BMP_pressure;BME280_temperature;BME280_humidity;BME280_pressure;Samples;Min_cycle;Max_cycle;Signal;HPM_P1;HPM_P2
2022/06/26 00:00:32;;;;;;;3.55;1.88;;;;;;;23.12;92.80;100559.31;5087954;28;20048;-63
2022/06/26 00:02:58;;;;;;;3.55;2.13;;;;;;;23.07;93.78;100561.84;5063181;28;20032;-62
2022/06/26 00:05:24;;;;;;;2.05;1.67;;;;;;;23.01;94.31;100556.16;5073388;28;20028;-62
2022/06/26 00:07:49;;;;;;;2.17;1.40;;;;;;;22.91;95.17;100564.72;5091246;28;20052;-63
2022/06/26 00:10:15;;;;;;;2.92;2.30;;;;;;;22.98;94.49;100558.97;5087966;28;20487;-62
2022/06/26 00:12:41;;;;;;;2.92;2.05;;;;;;;23.11;94.40;100563.25;5082785;28;20036;-62
2022/06/26 00:15:07;;;;;;;2.97;2.08;;;;;;;23.16;93.77;100559.97;5091661;28;20031;-62
2022/06/26 00:17:32;;;;;;;3.30;2.03;;;;;;;23.19;93.88;100558.28;5091477;28;20054;-63
2022/06/26 00:19:58;;;;;;;2.47;1.85;;;;;;;23.03;94.42;100556.47;5072967;28;20498;-62
2022/06/26 00:22:24;;;;;;;2.92;2.03;;;;;;;23.08;94.50;100558.66;5090295;28;20059;-63
2022/06/26 00:24:49;;;;;;;4.45;1.95;;;;;;;23.14;94.00;100558.84;5085021;28;20052;-62
2022/06/26 00:27:15;;;;;;;3.58;2.05;;;;;;;23.25;93.86;100564.75;5066986;28;20085;-62
2022/06/26 00:29:41;;;;;;;3.13;1.92;;;;;;;23.25;93.75;100554.53;5090056;28;20490;-62
2022/06/26 00:32:07;;;;;;;3.42;2.08;;;;;;;23.18;93.84;100557.53;5072304;28;20047;-62
2022/06/26 00:34:33;;;;;;;3.22;2.17;;;;;;;23.19;93.65;100547.28;5084012;28;20085;-62
2022/06/26 00:36:59;;;;;;;2.83;2.10;;;;;;;23.22;93.58;100557.41;5077004;28;20036;-62
2022/06/26 00:39:24;;;;;;;2.90;2.20;;;;;;;23.12;93.91;100542.81;5062180;28;20039;-62
2022/06/26 00:41:52;;;;;;;3.55;2.30;;;;;;;23.07;94.27;100543.34;5063605;28;20024;-62
2022/06/26 00:44:20;;;;;;;3.60;2.25;;;;;;;23.01;94.75;100553.41;5063992;28;20032;-62
2022/06/26 00:46:46;;;;;;;2.60;1.77;;;;;;;22.76;95.64;100542.44;5051544;28;20060;-62
2022/06/26 00:49:12;;;;;;;2.80;2.05;;;;;;;22.76;95.97;100544.41;5063528;28;20055;-62
2022/06/26 00:51:43;;;;;;;3.45;2.35;;;;;;;22.87;95.43;100540.09;5063973;28;20046;-62
2022/06/26 00:54:09;;;;;;;3.80;2.20;;;;;;;22.46;97.50;100548.41;5068916;28;20036;-62
2022/06/26 00:56:36;;;;;;;3.15;1.98;;;;;;;22.39;98.40;100540.41;5055006;28;20032;-62
2022/06/26 00:59:02;;;;;;;4.07;2.40;;;;;;;22.58;98.00;100542.19;5072032;28;20387;-63
2022/06/26 01:01:27;;;;;;;2.33;1.90;;;;;;;22.71;97.18;100547.69;5089257;28;20027;-62
2022/06/26 01:03:53;;;;;;;2.67;1.90;;;;;;;22.81;96.57;100543.84;5067185;28;20035;-62
2022/06/26 01:06:18;;;;;;;4.53;1.70;;;;;;;22.82;96.29;100534.41;5070528;28;20020;-62
2022/06/26 01:08:46;;;;;;;2.58;2.00;;;;;;;22.89;95.94;100531.41;5089703;28;20103;-62
2022/06/26 01:11:17;;;;;;;2.47;2.00;;;;;;;23.02;95.17;100538.44;5070707;28;20035;-62
2022/06/26 01:13:45;;;;;;;3.10;2.00;;;;;;;23.05;94.69;100532.03;5063044;28;20429;-62
2022/06/26 01:16:12;;;;;;;3.20;2.10;;;;;;;23.10;94.81;100538.97;5079882;28;20035;-62
2022/06/26 01:18:38;;;;;;;3.50;2.40;;;;;;;23.11;94.67;100541.25;5084297;28;20027;-62
2022/06/26 01:21:05;;;;;;;4.05;2.33;;;;;;;23.07;94.62;100535.13;5063388;28;20016;-62
2022/06/26 01:23:30;;;;;;;2.83;2.00;;;;;;;23.14;94.28;100534.13;5068097;28;20534;-63
2022/06/26 01:25:56;;;;;;;2.45;2.10;;;;;;;22.98;95.19;100532.28;5063712;28;20024;-62
2022/06/26 01:28:22;;;;;;;4.00;2.50;;;;;;;22.92;95.89;100536.00;5086860;28;20067;-62
2022/06/26 01:30:48;;;;;;;3.65;2.58;;;;;;;23.04;95.21;100532.50;5077913;28;20474;-62
2022/06/26 01:33:14;;;;;;;2.90;2.03;;;;;;;23.02;95.27;100535.69;5065913;28;20027;-62
2022/06/26 01:35:39;;;;;;;4.15;2.47;;;;;;;23.02;94.81;100541.19;5066304;28;20107;-62
2022/06/26 01:38:09;;;;;;;4.07;2.33;;;;;;;22.76;96.38;100536.16;5069031;28;20494;-62
2022/06/26 01:40:34;;;;;;;2.72;1.90;;;;;;;22.59;96.94;100543.72;5067216;28;20028;-63
2022/06/26 01:43:00;;;;;;;3.80;2.38;;;;;;;22.76;96.75;100536.16;5066779;28;21380;-62
2022/06/26 01:45:26;;;;;;;2.78;1.95;;;;;;;22.74;96.35;100533.84;5057533;28;20501;-62
2022/06/26 01:47:54;;;;;;;3.75;2.35;;;;;;;22.70;96.77;100546.94;5067050;28;20478;-62
2022/06/26 01:50:20;;;;;;;4.07;2.30;;;;;;;22.61;97.42;100546.81;5065952;28;20141;-62
2022/06/26 01:52:46;;;;;;;2.88;2.22;;;;;;;22.59;97.49;100543.72;5070906;28;20107;-62
2022/06/26 01:55:12;;;;;;;4.57;2.63;;;;;;;22.45;98.25;100544.91;5065433;28;20401;-61
2022/06/26 01:57:38;;;;;;;2.95;2.28;;;;;;;22.40;98.79;100545.44;5053262;28;20024;-61
2022/06/26 02:00:16;;;;;;;3.78;2.60;;;;;;;22.52;98.98;100543.91;5074680;28;20536;-62
2022/06/26 02:02:41;;;;;;;3.15;2.30;;;;;;;22.58;98.31;100550.44;5084630;28;20047;-62
2022/06/26 02:05:07;;;;;;;4.22;2.53;;;;;;;22.61;98.02;100555.03;5063471;28;20020;-63
2022/06/26 02:07:33;;;;;;;4.55;2.50;;;;;;;22.71;97.85;100551.19;5057388;28;20762;-63
2022/06/26 02:15:34;;;;;;;3.78;2.33;;;;;;;22.84;97.61;100538.22;5067974;28;20406;-62
2022/06/26 02:18:00;;;;;;;3.42;1.98;;;;;;;22.86;97.45;100544.03;5062915;28;20508;-62
2022/06/26 02:20:26;;;;;;;2.55;1.98;;;;;;;22.88;97.15;100544.38;5080176;28;20036;-63
2022/06/26 02:22:52;;;;;;;3.05;1.98;;;;;;;22.72;97.45;100550.00;5065590;28;20453;-63
2022/06/26 02:25:17;;;;;;;3.17;1.98;;;;;;;22.69;97.96;100552.84;5067979;28;20020;-63
2022/06/26 02:27:43;;;;;;;4.40;2.33;;;;;;;22.74;97.74;100552.31;5066725;28;20425;-62
2022/06/26 02:30:09;;;;;;;3.08;2.20;;;;;;;22.85;97.26;100552.72;5078831;28;20039;-62
2022/06/26 02:32:35;;;;;;;4.03;2.20;;;;;;;22.91;96.68;100550.97;5065414;28;20097;-62
2022/06/26 02:35:00;;;;;;;3.83;2.00;;;;;;;22.94;96.37;100558.31;5077180;28;20040;-62
2022/06/26 02:37:26;;;;;;;2.92;1.95;;;;;;;22.88;96.67;100552.63;5051862;28;20150;-62
2022/06/26 02:39:51;;;;;;;3.55;2.53;;;;;;;22.57;98.46;100559.88;5079615;28;20476;-62
2022/06/26 02:42:22;;;;;;;3.72;2.28;;;;;;;22.71;98.38;100551.19;5081889;28;20035;-62
2022/06/26 02:44:49;;;;;;;3.30;2.42;;;;;;;22.75;97.79;100551.09;5065555;28;20044;-62
2022/06/26 02:47:14;;;;;;;3.22;2.25;;;;;;;22.81;97.52;100550.09;5091156;28;20062;-62
2022/06/26 02:49:40;;;;;;;2.88;2.33;;;;;;;22.80;97.26;100547.81;5072217;28;20035;-63
2022/06/26 02:52:06;;;;;;;3.88;2.13;;;;;;;22.77;98.09;100549.44;5065851;28;20024;-62
2022/06/26 02:54:32;;;;;;;3.38;2.42;;;;;;;22.69;98.66;100555.59;5067289;28;20027;-62
2022/06/26 02:56:57;;;;;;;2.63;2.17;;;;;;;22.77;98.22;100560.44;5069895;28;20081;-62
2022/06/26 02:59:23;;;;;;;6.53;2.53;;;;;;;22.71;98.00;100566.91;5075773;28;20077;-62
2022/06/26 03:01:49;;;;;;;3.35;2.40;;;;;;;22.72;98.12;100566.50;5071701;28;20398;-62
2022/06/26 03:04:35;;;;;;;5.22;2.45;;;;;;;22.83;97.95;100568.88;5079099;28;20036;-62
2022/06/26 03:07:01;;;;;;;3.63;2.63;;;;;;;22.75;98.23;100562.84;5090723;28;20126;-62
2022/06/26 03:09:26;;;;;;;3.53;2.65;;;;;;;22.70;98.53;100555.16;5086802;28;20055;-62
2022/06/26 03:11:52;;;;;;;3.88;2.20;;;;;;;22.79;97.16;100549.78;5059730;28;20035;-62
2022/06/26 03:14:18;;;;;;;4.07;2.60;;;;;;;22.76;97.78;100560.88;5067310;28;20029;-62
2022/06/26 03:16:48;;;;;;;4.63;2.60;;;;;;;22.74;97.37;100555.06;5063126;28;20047;-62
2022/06/26 03:19:16;;;;;;;3.22;2.42;;;;;;;22.67;97.78;100561.53;5063087;28;20535;-62
2022/06/26 03:21:41;;;;;;;3.92;2.53;;;;;;;22.48;98.70;100558.94;5083689;28;20111;-62
2022/06/26 03:24:12;;;;;;;;;;;;;;;22.31;99.29;100561.03;5072330;28;20563;-62
2022/06/26 03:26:38;;;;;;;3.97;2.53;;;;;;;22.42;98.80;100566.97;5051477;28;19920;-62
2022/06/26 03:29:07;;;;;;;3.40;2.22;;;;;;;22.41;99.09;100566.19;5069555;28;20115;-62
2022/06/26 03:31:34;;;;;;;3.97;2.55;;;;;;;22.35;99.23;100570.72;5072438;28;20036;-62
2022/06/26 03:34:01;;;;;;;3.03;2.47;;;;;;;22.23;99.83;100562.44;5072742;22;20055;-62
2022/06/26 03:36:27;;;;;;;4.35;2.50;;;;;;;22.19;100.00;100564.50;5065136;28;20092;-57
2022/06/26 03:38:56;;;;;;;3.88;2.63;;;;;;;22.22;100.00;100558.16;5054913;28;20021;-58
2022/06/26 03:41:24;;;;;;;3.97;2.47;;;;;;;22.24;100.00;100570.22;5054695;28;20162;-59
2022/06/26 03:43:51;;;;;;;4.07;2.53;;;;;;;22.38;99.21;100567.06;5050734;28;20086;-54
2022/06/26 03:46:17;;;;;;;3.40;2.53;;;;;;;22.37;99.52;100575.75;5071590;28;20021;-59
2022/06/26 03:48:45;;;;;;;2.80;2.22;;;;;;;22.26;100.00;100569.81;5053862;28;20047;-60
2022/06/26 03:51:10;;;;;;;3.33;2.53;;;;;;;22.31;99.99;100572.00;5054950;28;20400;-60
2022/06/26 03:53:38;;;;;;;4.40;2.25;;;;;;;22.26;100.00;100565.06;5045714;28;20067;-60
2022/06/26 03:56:04;;;;;;;4.63;2.67;;;;;;;22.40;99.59;100574.88;5053807;28;20484;-60
2022/06/26 03:58:31;;;;;;;3.60;2.70;;;;;;;22.34;99.30;100571.13;5050280;28;20071;-58
2022/06/26 04:00:57;;;;;;;4.72;2.72;;;;;;;22.24;100.00;100570.22;5063309;28;20082;-61
2022/06/26 04:03:23;;;;;;;3.50;2.63;;;;;;;22.25;100.00;100574.53;5044127;28;20032;-60
2022/06/26 04:05:49;;;;;;;4.00;2.58;;;;;;;22.20;100.00;100569.56;5071479;28;20518;-58
2022/06/26 04:08:15;;;;;;;4.38;2.63;;;;;;;22.26;100.00;100575.31;5050556;28;20048;-60
2022/06/26 04:10:43;;;;;;;5.13;2.63;;;;;;;22.14;100.00;100571.28;5044401;28;20481;-61
2022/06/26 04:13:38;;;;;;;4.60;2.58;;;;;;;22.07;100.00;100571.50;5056201;28;20093;-58
2022/06/26 04:16:04;;;;;;;4.82;2.67;;;;;;;22.33;100.00;100577.84;5053452;28;20494;-60
2022/06/26 04:18:32;;;;;;;3.58;2.65;;;;;;;22.27;100.00;100571.34;5050132;28;20033;-59
2022/06/26 04:20:58;;;;;;;5.05;2.45;;;;;;;22.28;100.00;100567.38;5053037;28;20035;-58
2022/06/26 04:23:24;;;;;;;4.45;2.60;;;;;;;22.16;100.00;100568.88;5052594;28;20025;-60
2022/06/26 04:25:54;;;;;;;4.43;2.80;;;;;;;22.22;100.00;100574.63;5083709;28;20025;-61
2022/06/26 04:28:22;;;;;;;4.65;2.65;;;;;;;22.32;100.00;100568.81;5050943;28;20139;-59
2022/06/26 04:30:48;;;;;;;9.20;2.97;;;;;;;22.48;100.00;100576.19;5048144;28;20123;-60
2022/06/26 04:33:13;;;;;;;4.30;2.63;;;;;;;22.56;100.00;100571.25;5052451;28;20109;-57
2022/06/26 04:35:39;;;;;;;3.80;2.42;;;;;;;22.63;100.00;100571.84;5050007;28;20020;-55
2022/06/26 04:38:07;;;;;;;6.72;2.55;;;;;;;22.60;100.00;100575.47;5052869;28;20484;-61
2022/06/26 04:40:33;;;;;;;5.03;3.17;;;;;;;22.57;100.00;100572.84;5071484;28;20047;-57
2022/06/26 04:42:59;;;;;;;4.22;2.83;;;;;;;22.61;100.00;100568.78;5053254;28;20024;-58
2022/06/26 04:45:25;;;;;;;3.35;2.40;;;;;;;22.83;99.96;100575.16;5045806;28;20025;-61
2022/06/26 04:47:53;;;;;;;3.42;2.55;;;;;;;22.84;100.00;100575.94;5046950;28;20067;-60
2022/06/26 04:50:21;;;;;;;4.00;2.67;;;;;;;23.05;98.92;100575.25;5053179;28;20094;-58
2022/06/26 04:52:49;;;;;;;4.05;2.53;;;;;;;23.03;99.33;100578.44;5059486;28;20334;-56
2022/06/26 04:55:16;;;;;;;4.72;2.83;;;;;;;22.87;98.19;100581.31;5048196;28;20050;-59
2022/06/26 04:57:45;;;;;;;3.92;2.55;;;;;;;22.90;99.39;100577.66;5079681;28;20385;-60
2022/06/26 05:00:14;;;;;;;3.67;2.60;;;;;;;23.19;98.28;100572.03;5052238;28;20082;-57
2022/06/26 05:03:00;;;;;;;4.07;2.20;;;;;;;23.28;97.76;100578.41;5051102;28;20032;-61
2022/06/26 05:05:45;;;;;;;5.82;2.55;;;;;;;23.30;97.39;100578.75;5069857;28;20032;-60
2022/06/26 05:08:33;;;;;;;5.32;2.65;;;;;;;23.44;96.95;100585.75;5068875;28;20409;-60
2022/06/26 05:10:59;;;;;;;5.38;2.70;;;;;;;23.56;96.45;100593.19;5056405;28;20024;-60
2022/06/26 05:13:25;;;;;;;4.05;2.65;;;;;;;23.58;95.55;100579.78;5051273;28;20362;-59
2022/06/26 05:16:20;;;;;;;4.10;2.88;;;;;;;24.03;94.25;100585.69;5057407;28;20128;-61
2022/06/26 05:18:45;;;;;;;3.60;2.42;;;;;;;24.35;90.36;100584.50;5068408;28;20112;-59
2022/06/26 05:21:13;;;;;;;3.88;2.55;;;;;;;25.11;89.52;100594.94;5083215;28;20032;-59
2022/06/26 05:23:40;;;;;;;4.88;2.38;;;;;;;25.77;85.05;100588.63;5052321;28;20715;-59
2022/06/26 05:26:08;;;;;;;3.35;2.53;;;;;;;26.22;80.85;100602.44;5048771;28;20070;-60
2022/06/26 05:28:35;;;;;;;2.83;2.13;;;;;;;25.90;80.98;100597.53;5042782;28;20234;-60
2022/06/26 05:31:00;;;;;;;3.17;2.05;;;;;;;26.60;79.30;100602.66;5047878;28;20470;-59
2022/06/26 05:33:31;;;;;;;2.60;1.90;;;;;;;27.01;74.99;100603.13;5049924;28;20033;-60
2022/06/26 05:35:56;;;;;;;2.83;2.03;;;;;;;27.29;73.88;100607.28;5055801;28;20400;-60
2022/06/26 05:38:22;;;;;;;3.38;2.28;;;;;;;27.41;71.56;100612.59;5068562;28;20025;-55
2022/06/26 05:40:49;;;;;;;2.38;2.00;;;;;;;27.31;73.74;100613.13;5051222;28;20036;-57
2022/06/26 05:43:16;;;;;;;1.90;1.70;;;;;;;27.52;73.64;100614.84;5051321;28;20029;-59
2022/06/26 05:45:42;;;;;;;1.83;1.48;;;;;;;28.22;72.24;100618.75;5072737;28;20489;-59
2022/06/26 05:48:21;;;;;;;2.97;2.10;;;;;;;28.14;71.36;100612.84;5051950;28;20028;-60
2022/06/26 05:51:03;;;;;;;1.70;1.60;;;;;;;28.17;69.92;100614.63;5084847;28;20031;-62
2022/06/26 05:53:38;;;;;;;2.25;1.70;;;;;;;27.82;68.90;100610.16;5051137;28;20115;-58
2022/06/26 05:56:24;;;;;;;2.63;1.77;;;;;;;27.38;70.84;100619.09;5063815;28;20443;-57
2022/06/26 05:58:54;;;;;;;2.40;1.70;;;;;;;27.11;74.27;100618.44;5069513;28;20036;-58
2022/06/26 06:01:54;;;;;;;1.58;1.45;;;;;;;27.41;73.04;100617.41;4968753;28;20049;-61
2022/06/26 06:04:21;;;;;;;2.38;2.08;;;;;;;27.15;74.08;100617.03;5050638;28;20227;-61
2022/06/26 06:06:46;;;;;;;2.20;1.70;;;;;;;27.73;71.45;100626.84;5070126;28;20111;-60
2022/06/26 06:09:13;;;;;;;2.72;1.45;;;;;;;27.45;72.76;100629.03;5044991;28;20099;-60
2022/06/26 06:11:39;;;;;;;1.73;1.50;;;;;;;27.77;70.29;100625.44;5051562;28;20068;-60
2022/06/26 06:14:05;;;;;;;2.33;1.70;;;;;;;27.99;66.99;100623.09;5050600;28;20452;-57
2022/06/26 06:16:31;;;;;;;1.65;1.42;;;;;;;27.63;69.36;100620.59;5049439;28;20028;-57
2022/06/26 06:18:56;;;;;;;1.65;1.55;;;;;;;27.59;69.17;100623.56;5061991;28;20123;-58
2022/06/26 06:21:26;;;;;;;2.53;1.88;;;;;;;28.05;67.54;100631.56;5051214;28;20029;-61
2022/06/26 06:23:51;;;;;;;1.95;1.70;;;;;;;27.54;70.24;100624.22;5051201;28;20381;-58
2022/06/26 06:26:17;;;;;;;1.80;1.38;;;;;;;28.06;67.70;100633.84;5049231;28;20143;-59
2022/06/26 06:28:43;;;;;;;1.83;1.45;;;;;;;27.47;68.24;100632.88;5047435;28;20438;-61
2022/06/26 06:31:10;;;;;;;2.45;1.50;;;;;;;27.84;67.61;100629.81;5055176;28;20051;-60
2022/06/26 06:33:36;;;;;;;2.28;1.38;;;;;;;27.28;68.55;100630.66;5079474;28;20040;-60
2022/06/26 06:36:01;;;;;;;1.38;1.27;;;;;;;27.17;69.85;100625.66;5042244;28;20021;-61
2022/06/26 06:38:29;;;;;;;2.90;1.75;;;;;;;27.34;67.65;100628.78;5041439;28;20489;-60
2022/06/26 06:40:58;;;;;;;2.83;1.67;;;;;;;27.51;68.03;100632.69;5050639;28;20033;-58
2022/06/26 06:43:32;;;;;;;1.52;1.42;;;;;;;27.12;68.70;100640.09;5035975;28;20033;-57
2022/06/26 06:46:36;;;;;;;2.10;1.60;;;;;;;26.84;70.43;100637.91;4965470;28;20217;-58
2022/06/26 06:49:12;;;;;;;2.40;1.45;;;;;;;26.58;73.30;100635.50;4961248;28;20060;-59
2022/06/26 06:51:52;;;;;;;1.70;1.58;;;;;;;26.23;72.41;100633.59;5007821;28;20063;-61
2022/06/26 06:54:18;;;;;;;2.03;1.58;;;;;;;26.04;78.43;100641.09;5056090;28;20143;-58
2022/06/26 06:56:45;;;;;;;1.95;1.48;;;;;;;26.11;75.86;100646.34;5048054;28;20029;-54
2022/06/26 06:59:10;;;;;;;2.08;1.55;;;;;;;26.61;74.65;100647.66;5068166;28;20535;-56
2022/06/26 07:01:36;;;;;;;3.03;2.00;;;;;;;26.21;75.77;100647.09;5043698;28;20066;-59
2022/06/26 07:04:02;;;;;;;1.52;1.42;;;;;;;26.88;74.06;100657.88;5049791;28;20041;-58
2022/06/26 07:06:28;;;;;;;2.20;1.65;;;;;;;27.07;73.19;100651.81;5050511;28;20017;-61
2022/06/26 07:08:53;;;;;;;2.10;1.55;;;;;;;27.51;71.87;100652.06;5039318;28;20500;-61
2022/06/26 07:11:19;;;;;;;3.05;1.80;;;;;;;27.76;72.43;100654.34;5049057;28;20309;-61
2022/06/26 07:13:45;;;;;;;1.50;1.40;;;;;;;28.10;72.20;100653.03;5048699;28;20064;-59
2022/06/26 07:16:11;;;;;;;2.45;1.88;;;;;;;28.03;70.75;100668.00;5051095;28;20036;-60
2022/06/26 07:18:37;;;;;;;1.73;1.63;;;;;;;28.32;66.20;100654.22;5068110;28;20039;-60
2022/06/26 07:21:03;;;;;;;1.60;1.27;;;;;;;28.42;66.85;100661.19;5050527;28;20032;-60
2022/06/26 07:23:29;;;;;;;2.22;1.65;;;;;;;28.54;65.42;100656.66;5065844;28;20032;-60
2022/06/26 07:26:05;;;;;;;2.53;1.77;;;;;;;28.36;66.16;100656.78;5034736;28;20035;-61
2022/06/26 07:28:35;;;;;;;1.90;1.50;;;;;;;28.34;66.65;100651.72;5039904;28;20056;-62
2022/06/26 07:31:01;;;;;;;1.42;1.25;;;;;;;28.76;62.33;100650.72;5064895;28;20063;-60
2022/06/26 07:36:12;;;;;;;1.30;1.20;;;;;;;29.56;60.01;100650.91;5066865;28;20029;-60
2022/06/26 07:38:38;;;;;;;1.85;1.25;;;;;;;29.59;58.55;100661.06;5052223;28;20040;-61
2022/06/26 07:41:04;;;;;;;2.17;1.20;;;;;;;29.76;56.15;100659.28;5053324;28;20090;-60
2022/06/26 07:43:29;;;;;;;1.75;1.20;;;;;;;28.98;56.27;100664.91;5071116;28;20028;-60
2022/06/26 07:45:57;;;;;;;1.92;1.17;;;;;;;29.19;58.91;100663.78;5054497;28;20021;-60
2022/06/26 07:48:22;;;;;;;2.10;1.10;;;;;;;29.90;56.35;100674.34;5042566;28;20472;-61
2022/06/26 07:50:52;;;;;;;1.08;0.95;;;;;;;30.39;54.61;100678.94;5049284;28;20412;-60
2022/06/26 07:53:19;;;;;;;2.25;1.08;;;;;;;30.73;53.45;100684.31;5071966;28;20039;-60
2022/06/26 07:55:45;;;;;;;1.17;1.02;;;;;;;31.00;52.42;100683.03;5071241;28;20297;-60
2022/06/26 07:58:10;;;;;;;1.45;1.13;;;;;;;31.11;50.48;100685.91;5071385;28;20036;-61
2022/06/26 08:00:36;;;;;;;1.27;1.17;;;;;;;30.47;50.60;100691.16;5069001;28;20045;-60
2022/06/26 08:03:06;;;;;;;1.45;1.10;;;;;;;29.93;53.05;100685.25;5069199;28;20032;-60
2022/06/26 08:05:31;;;;;;;1.88;1.23;;;;;;;30.40;53.03;100686.03;5067717;28;20382;-61
2022/06/26 08:07:57;;;;;;;1.77;1.25;;;;;;;30.43;54.08;100693.41;5071302;28;20067;-61
2022/06/26 08:10:23;;;;;;;1.13;1.02;;;;;;;30.59;53.55;100699.13;5049647;28;20036;-59
2022/06/26 08:12:48;;;;;;;3.08;1.45;;;;;;;29.10;55.98;100697.91;5068202;28;20028;-60
2022/06/26 08:15:14;;;;;;;1.40;1.05;;;;;;;30.17;54.87;100701.69;5072239;28;20029;-60
2022/06/26 08:17:39;;;;;;;1.52;1.10;;;;;;;30.93;52.96;100703.72;5070942;28;20021;-60
2022/06/26 08:20:05;;;;;;;3.17;1.50;;;;;;;31.41;51.98;100698.28;5072204;28;20392;-59
2022/06/26 08:22:31;;;;;;;1.63;1.40;;;;;;;31.70;50.38;100697.19;5071386;28;20043;-63
2022/06/26 08:24:56;;;;;;;6.78;1.52;;;;;;;31.61;49.57;100711.31;5068132;28;20041;-63
2022/06/26 08:27:22;;;;;;;3.15;1.60;;;;;;;31.53;50.60;100704.69;5071991;28;20039;-59
2022/06/26 08:29:47;;;;;;;1.63;1.13;;;;;;;31.93;51.52;100707.97;5068239;28;20032;-61
2022/06/26 08:32:13;;;;;;;2.97;1.30;;;;;;;31.63;49.73;100695.63;5068848;28;20032;-61
2022/06/26 08:34:38;;;;;;;1.98;1.40;;;;;;;30.80;51.44;100694.22;5067814;28;20469;-57
2022/06/26 08:37:05;;;;;;;1.70;1.60;;;;;;;31.29;50.54;100704.25;5067157;28;20028;-63
2022/06/26 08:39:35;;;;;;;1.45;1.23;;;;;;;31.49;54.29;100707.72;5056568;28;20396;-68
2022/06/26 08:42:02;;;;;;;1.65;1.48;;;;;;;32.74;47.25;100710.69;5062944;28;20664;-67
2022/06/26 08:44:28;;;;;;;1.50;1.13;;;;;;;33.90;47.20;100711.81;5067292;28;20029;-64
2022/06/26 08:46:55;;;;;;;1.98;1.42;;;;;;;34.78;42.77;100718.97;5064805;28;20032;-65
2022/06/26 08:49:23;;;;;;;1.27;1.13;;;;;;;35.03;42.29;100714.97;5066470;28;20392;-67
2022/06/26 08:51:50;;;;;;;1.33;1.10;;;;;;;35.93;41.49;100721.94;5066140;28;20044;-66
2022/06/26 08:54:18;;;;;;;1.55;1.10;;;;;;;36.46;39.33;100723.78;5064421;28;20032;-71
2022/06/26 08:56:47;;;;;;;1.65;1.30;;;;;;;36.10;41.26;100716.88;5063716;28;20021;-68
2022/06/26 08:59:16;;;;;;;1.73;1.60;;;;;;;37.67;42.58;100723.75;5064135;28;20560;-66
2022/06/26 09:01:42;;;;;;;1.33;1.17;;;;;;;38.06;39.45;100722.97;5058896;28;20029;-68
2022/06/26 09:04:09;;;;;;;1.25;1.15;;;;;;;37.38;38.76;100726.91;5063485;28;20495;-70
2022/06/26 09:06:40;;;;;;;1.10;1.00;;;;;;;37.56;38.62;100721.16;5085431;28;20029;-67
2022/06/26 09:09:17;;;;;;;1.10;1.00;;;;;;;37.46;39.63;100730.59;5070487;28;20064;-67
2022/06/26 09:11:44;;;;;;;1.20;1.10;;;;;;;37.88;38.81;100723.88;5058569;28;20110;-68
2022/06/26 09:14:13;;;;;;;1.10;0.90;;;;;;;37.97;36.45;100727.00;5064104;28;20039;-68
2022/06/26 09:16:42;;;;;;;2.30;0.98;;;;;;;37.17;37.25;100731.63;5066874;28;20016;-66
2022/06/26 09:19:13;;;;;;;0.70;0.70;;;;;;;36.88;35.39;100728.50;5067463;28;20060;-68
2022/06/26 09:21:39;;;;;;;1.08;0.98;;;;;;;36.89;37.99;100732.09;5065244;28;20458;-67
2022/06/26 09:24:12;;;;;;;0.60;0.60;;;;;;;37.88;36.59;100735.16;5064989;28;20816;-68
2022/06/26 09:26:42;;;;;;;2.05;0.73;;;;;;;39.27;36.76;100738.31;5050543;28;20029;-68
2022/06/26 09:29:09;;;;;;;;;;;;;;;39.23;34.28;100744.31;5064840;28;20115;-66
2022/06/26 09:31:37;;;;;;;0.70;0.70;;;;;;;38.10;34.34;100733.91;5063041;28;19919;-67
2022/06/26 09:36:29;;;;;;;0.63;0.60;;;;;;;36.93;38.07;100738.16;5078533;22;20136;-62
2022/06/26 09:38:55;;;;;;;0.60;0.60;;;;;;;37.01;36.72;100727.78;5065087;28;20119;-61
2022/06/26 09:41:34;;;;;;;0.70;0.70;;;;;;;36.93;37.69;100724.88;5063543;28;20032;-62
2022/06/26 09:44:00;;;;;;;0.80;0.80;;;;;;;36.55;36.01;100726.19;5063640;28;20028;-62
2022/06/26 09:46:31;;;;;;;0.95;0.80;;;;;;;36.32;36.08;100732.63;5058313;28;20028;-62
2022/06/26 09:48:58;;;;;;;0.88;0.63;;;;;;;35.98;36.41;100730.31;5062802;28;20033;-62
2022/06/26 09:51:24;;;;;;;0.73;0.57;;;;;;;36.49;36.06;100733.94;5065691;28;20024;-61
2022/06/26 09:53:51;;;;;;;0.50;0.50;;;;;;;37.27;36.77;100733.44;5064097;28;20058;-61
2022/06/26 09:56:17;;;;;;;0.50;0.50;;;;;;;38.39;35.29;100739.16;5060755;28;20039;-62
2022/06/26 09:58:43;;;;;;;0.75;0.68;;;;;;;39.62;33.06;100734.81;5063653;28;20037;-62
2022/06/26 10:06:43;;;;;;;1.35;0.68;;;;;;;40.35;33.53;100749.09;5065185;28;20032;-62
2022/06/26 10:09:10;;;;;;;0.95;0.80;;;;;;;40.38;31.62;100756.47;5067299;28;20458;-62
2022/06/26 10:11:39;;;;;;;0.55;0.55;;;;;;;38.76;34.69;100758.53;5062821;28;20123;-60
2022/06/26 10:14:11;;;;;;;1.00;0.73;;;;;;;37.13;36.56;100756.47;5043422;28;20029;-61
2022/06/26 10:16:36;;;;;;;0.70;0.70;;;;;;;36.19;37.70;100750.94;5063133;28;20511;-59
2022/06/26 10:19:17;;;;;;;0.95;0.77;;;;;;;37.90;38.85;100749.44;5065214;28;20067;-59
2022/06/26 10:21:44;;;;;;;0.90;0.90;;;;;;;39.51;36.94;100755.63;5064074;28;20458;-61
2022/06/26 10:24:09;;;;;;;0.70;0.70;;;;;;;39.77;35.67;100763.13;5064798;28;20036;-61
2022/06/26 10:26:35;;;;;;;0.70;0.65;;;;;;;40.68;33.74;100758.59;5063631;28;20106;-62
2022/06/26 10:29:09;;;;;;;0.90;0.90;;;;;;;40.65;32.64;100764.63;5047121;28;20032;-60
2022/06/26 10:31:47;;;;;;;0.93;0.73;;;;;;;39.15;33.45;100770.94;5057715;28;20025;-58
2022/06/26 10:34:15;;;;;;;0.70;0.60;;;;;;;39.01;35.29;100770.22;5062694;28;20031;-57
2022/06/26 10:36:44;;;;;;;2.35;0.82;;;;;;;38.43;34.23;100764.94;5062493;28;20043;-59
2022/06/26 10:39:10;;;;;;;0.95;0.90;;;;;;;37.22;36.29;100764.47;5060846;28;20072;-63
2022/06/26 10:44:54;;;;;;;0.80;0.80;;;;;;;35.68;39.58;100765.28;5061993;28;20118;-63
2022/06/26 10:47:20;;;;;;;1.05;0.75;;;;;;;35.97;38.75;100759.63;5060694;28;20079;-62
2022/06/26 10:49:47;;;;;;;0.90;0.80;;;;;;;36.49;37.14;100761.28;5068916;28;20027;-63
2022/06/26 10:52:23;;;;;;;0.65;0.65;;;;;;;37.44;37.61;100770.47;5056108;28;20033;-62
2022/06/26 10:54:50;;;;;;;0.95;0.90;;;;;;;38.40;35.27;100765.25;5052001;28;20028;-62
2022/06/26 10:57:20;;;;;;;0.80;0.50;;;;;;;39.27;33.08;100764.47;5047154;28;20051;-62
2022/06/26 10:59:45;;;;;;;0.73;0.60;;;;;;;39.36;34.87;100774.47;5063413;28;20036;-62
2022/06/26 11:02:13;;;;;;;1.13;1.02;;;;;;;39.72;34.21;100783.03;5063367;28;20025;-63
2022/06/26 11:04:50;;;;;;;0.55;0.52;;;;;;;39.57;32.96;100772.41;5064870;28;20891;-63
2022/06/26 11:07:18;;;;;;;0.50;0.50;;;;;;;39.96;33.70;100772.09;5059035;28;20033;-63
2022/06/26 11:09:44;;;;;;;0.70;0.70;;;;;;;39.57;33.50;100780.88;5071095;28;20033;-63
2022/06/26 11:12:10;;;;;;;0.47;0.47;;;;;;;39.75;33.92;100779.09;5067061;28;20096;-62
2022/06/26 11:14:36;;;;;;;0.52;0.52;;;;;;;40.32;32.18;100769.25;5040219;28;20119;-62
2022/06/26 11:17:02;;;;;;;0.80;0.70;;;;;;;41.32;32.76;100773.19;5060592;28;20052;-63
2022/06/26 11:19:31;;;;;;;0.60;0.60;;;;;;;41.61;31.66;100761.66;5048472;28;20036;-62
2022/06/26 11:22:08;;;;;;;0.52;0.50;;;;;;;42.08;31.53;100770.22;5047181;28;20627;-63
2022/06/26 11:24:36;;;;;;;1.80;0.88;;;;;;;42.25;29.84;100766.75;5056297;28;20032;-63
2022/06/26 11:27:02;;;;;;;0.60;0.60;;;;;;;42.01;30.62;100766.09;5053419;28;20025;-62
2022/06/26 11:29:28;;;;;;;0.80;0.70;;;;;;;41.18;30.72;100768.25;5051959;28;20474;-63
2022/06/26 11:31:53;;;;;;;0.82;0.70;;;;;;;39.89;32.23;100763.56;5056758;28;20048;-65
2022/06/26 11:34:20;;;;;;;0.60;0.60;;;;;;;39.96;31.67;100760.81;5057607;28;21004;-70
2022/06/26 11:36:59;;;;;;;0.70;0.70;;;;;;;40.18;32.40;100757.31;5057536;28;20046;-64
2022/06/26 11:39:39;;;;;;;0.50;0.50;;;;;;;40.91;31.34;100767.88;5065778;28;20024;-64
2022/06/26 11:42:17;;;;;;;0.60;0.60;;;;;;;40.77;31.18;100766.53;5062052;28;20421;-65
2022/06/26 11:44:47;;;;;;;1.35;0.60;;;;;;;40.63;31.69;100778.56;5062430;28;20094;-64
2022/06/26 11:47:13;;;;;;;0.68;0.68;;;;;;;40.47;32.30;100775.72;5066526;28;20079;-64